Skip Navigation Links Skip Navigation Links

Current Weather

Pontiac Municipal, Pontiac, Ill.

For information only: do not use for flight planning or navigation.
Latest weather
Observation time Friday, December 3, 2021 3:15 AM CST
Local time Friday, December 3, 2021 3:37 AM CST
Flight conditions Visual Meteorological Conditions
Winds
Wind direction East-Northeast (70°)
Wind speed 6 mph
Visibility 10 mi.
Sky condition
Ceiling unlimited
Sky clear
Temperature 35°F
Dewpoint 32°F
Altimeter 30.02 in.Hg
Derived measurements
Relative humidity 90%
Wind chill 30°F
Density altitude -1007 ft.
Remarks
Fully automated report.
Automated weather observing station with precipitation discriminator.
METAR KPNT 030915Z AUTO 07005KT 10SM CLR 02/00 A3002 RMK AO2 T00150001

Settings

Location code

InnerDrive.Weather 4.0.6770.0 Release CLR 4.0.30319.42000
Copyright ©2018 Inner Drive Technology. All rights reserved. Portions Copyright ©1986-2018 David Braverman.

Find weather

Site navigation


Skip Navigation Links

Place info

Page info

PayPal - The safer, easier way to pay online!

Return home.

Copyright ©2021 Inner Drive Technology. Purveyors of fine, hand-crafted computer software. Page printed 2021-12-03T09:37:28 UTC.